createdAt,value
2022-08-19T00:01:29.197Z,23.00
2022-08-19T00:03:57.166Z,17.57
2022-08-19T00:06:23.873Z,18.20
2022-08-19T00:08:52.225Z,16.13
2022-08-19T00:11:25.638Z,18.20
2022-08-19T00:13:52.708Z,21.10
2022-08-19T00:16:20.514Z,14.93
2022-08-19T00:18:52.933Z,18.70
2022-08-19T00:21:19.493Z,14.00
2022-08-19T00:23:46.076Z,14.00
2022-08-19T00:26:12.603Z,14.30
2022-08-19T00:28:39.181Z,14.50
2022-08-19T00:31:05.742Z,13.10
2022-08-19T00:33:35.372Z,12.23
2022-08-19T00:36:01.909Z,10.07
2022-08-19T00:38:37.352Z,18.00
2022-08-19T00:41:04.435Z,9.17
2022-08-19T00:43:31.004Z,8.20
2022-08-19T00:45:57.639Z,10.57
2022-08-19T00:48:24.392Z,12.40
2022-08-19T00:50:51.575Z,11.30
2022-08-19T00:53:19.864Z,12.73
2022-08-19T00:55:46.382Z,16.00
2022-08-19T00:58:13.473Z,18.67
2022-08-19T01:00:40.053Z,20.30
2022-08-19T01:03:06.646Z,14.63
2022-08-19T01:05:33.169Z,22.00
2022-08-19T01:07:59.727Z,16.57
2022-08-19T01:10:26.417Z,14.57
2022-08-19T01:12:53.090Z,15.73
2022-08-19T01:15:19.889Z,20.50
2022-08-19T01:17:46.458Z,19.67
2022-08-19T01:20:13.053Z,14.90
2022-08-19T01:22:42.872Z,12.73
2022-08-19T01:25:14.951Z,13.23
2022-08-19T01:27:43.684Z,12.73
2022-08-19T01:44:30.557Z,18.03
2022-08-19T01:46:57.224Z,20.60
2022-08-19T01:49:23.931Z,17.60
2022-08-19T01:51:50.551Z,17.90
2022-08-19T01:54:27.012Z,14.10
2022-08-19T01:56:54.535Z,30.30
2022-08-19T01:59:21.456Z,20.20
2022-08-19T02:01:48.043Z,17.70
2022-08-19T02:04:15.441Z,15.63
2022-08-19T02:06:42.111Z,15.23
2022-08-19T02:09:09.153Z,16.57
2022-08-19T02:11:36.259Z,14.73
2022-08-19T02:14:03.054Z,24.97
2022-08-19T02:16:29.577Z,20.23
2022-08-19T02:18:56.145Z,20.20
2022-08-19T02:21:22.755Z,19.10
2022-08-19T02:23:49.323Z,18.60
2022-08-19T02:26:15.885Z,15.57
2022-08-19T02:28:42.451Z,20.30
2022-08-19T02:31:09.382Z,20.00
2022-08-19T02:33:36.009Z,25.60
2022-08-19T02:36:02.603Z,31.17
2022-08-19T02:38:29.411Z,28.90
2022-08-19T02:40:59.118Z,34.17
2022-08-19T02:43:26.624Z,38.67
2022-08-19T02:45:53.160Z,38.30
2022-08-19T02:48:21.899Z,33.10
2022-08-19T02:50:51.959Z,37.80
2022-08-19T02:53:20.464Z,38.93
2022-08-19T02:55:47.095Z,34.00
2022-08-19T02:58:13.723Z,32.10
2022-08-19T03:00:42.239Z,37.63
2022-08-19T03:03:08.888Z,36.40
2022-08-19T03:05:46.987Z,36.23
2022-08-19T03:08:21.980Z,35.57
2022-08-19T03:10:49.405Z,32.03
2022-08-19T03:13:16.349Z,32.40
2022-08-19T03:15:42.914Z,40.43
2022-08-19T03:18:09.579Z,32.73
2022-08-19T03:20:36.429Z,39.47
2022-08-19T03:23:03.006Z,34.60
2022-08-19T03:25:29.556Z,34.03
2022-08-19T03:27:56.129Z,29.77
2022-08-19T03:30:23.307Z,28.53
2022-08-19T03:32:51.438Z,28.17
2022-08-19T03:35:23.629Z,25.80
2022-08-19T03:37:50.165Z,33.27
2022-08-19T03:40:16.785Z,37.00
2022-08-19T03:42:49.257Z,39.13
2022-08-19T03:45:16.040Z,36.53
2022-08-19T03:47:42.656Z,38.40
2022-08-19T03:50:09.981Z,27.23
2022-08-19T03:52:36.861Z,33.80
2022-08-19T03:55:03.432Z,42.03
2022-08-19T03:57:32.016Z,25.13
2022-08-19T04:00:04.139Z,28.13
2022-08-19T04:02:40.386Z,29.70
2022-08-19T04:05:09.059Z,34.33
2022-08-19T04:07:35.672Z,30.17
2022-08-19T04:10:02.246Z,35.03
2022-08-19T04:12:28.792Z,33.60
2022-08-19T04:14:55.342Z,27.77
2022-08-19T04:17:23.321Z,25.97
2022-08-19T04:19:49.918Z,29.97
2022-08-19T04:22:16.488Z,30.00
2022-08-19T04:24:43.042Z,24.70
2022-08-19T04:27:09.646Z,26.83
2022-08-19T04:29:36.234Z,31.23
2022-08-19T04:32:09.050Z,29.93
2022-08-19T04:34:36.313Z,34.03
2022-08-19T04:37:22.858Z,30.60
2022-08-19T04:40:08.117Z,30.47
2022-08-19T04:42:40.663Z,36.30
2022-08-19T04:45:09.424Z,29.97
2022-08-19T04:47:47.470Z,27.47
2022-08-19T04:50:23.496Z,24.17
2022-08-19T04:52:50.034Z,30.03
2022-08-19T04:55:16.587Z,31.40
2022-08-19T04:57:43.130Z,25.37
2022-08-19T05:00:09.699Z,24.73
2022-08-19T05:02:36.385Z,41.00
2022-08-19T05:05:03.605Z,26.63
2022-08-19T05:07:30.399Z,27.87
2022-08-19T05:09:58.819Z,27.00
2022-08-19T05:12:28.927Z,28.30
2022-08-19T05:14:57.585Z,33.20
2022-08-19T05:17:27.522Z,39.60
2022-08-19T05:20:14.329Z,30.40
2022-08-19T05:22:40.877Z,40.40
2022-08-19T05:25:12.938Z,29.20
2022-08-19T05:27:43.390Z,45.47
2022-08-19T05:30:10.030Z,32.37
2022-08-19T05:32:36.635Z,33.67
2022-08-19T05:35:03.199Z,38.20
2022-08-19T05:37:30.069Z,35.63
2022-08-19T05:39:59.043Z,38.87
2022-08-19T05:42:26.669Z,40.57
2022-08-19T05:44:53.409Z,34.70
2022-08-19T05:47:20.993Z,34.90
2022-08-19T05:49:48.035Z,29.50
2022-08-19T05:52:16.387Z,31.37
2022-08-19T05:54:46.289Z,34.27
2022-08-19T05:57:14.562Z,34.13
2022-08-19T05:59:41.121Z,29.70
2022-08-19T06:02:07.833Z,30.00
2022-08-19T06:04:34.417Z,31.13
2022-08-19T06:07:12.549Z,26.77
2022-08-19T06:09:39.563Z,38.77
2022-08-19T06:12:06.283Z,32.10
2022-08-19T06:14:33.469Z,42.57
2022-08-19T06:17:06.863Z,32.07
2022-08-19T06:19:34.051Z,39.00
2022-08-19T06:22:00.699Z,33.77
2022-08-19T06:24:28.832Z,31.27
2022-08-19T06:26:59.219Z,29.63
2022-08-19T06:29:28.365Z,30.03
2022-08-19T06:31:55.316Z,30.03
2022-08-19T06:34:21.931Z,36.70
2022-08-19T06:36:48.469Z,33.80
2022-08-19T06:39:15.038Z,43.13
2022-08-19T06:41:47.203Z,27.53
2022-08-19T06:44:17.293Z,31.40
2022-08-19T06:46:45.986Z,24.70
2022-08-19T06:49:21.293Z,22.97
2022-08-19T06:51:48.624Z,23.13
2022-08-19T06:54:19.298Z,31.37
2022-08-19T06:56:46.716Z,22.97
2022-08-19T06:59:13.310Z,21.60
2022-08-19T07:01:40.420Z,23.37
2022-08-19T07:04:07.134Z,26.07
2022-08-19T07:06:43.912Z,15.50
2022-08-19T07:09:11.348Z,24.50
2022-08-19T07:11:38.893Z,21.00
2022-08-19T07:14:07.434Z,33.67
2022-08-19T07:16:49.064Z,15.70
2022-08-19T07:19:16.162Z,32.80
2022-08-19T07:21:45.338Z,22.67
2022-08-19T07:24:13.145Z,16.10
2022-08-19T07:26:39.818Z,27.90
2022-08-19T07:29:08.771Z,36.77
2022-08-19T07:31:37.762Z,21.23
2022-08-19T07:34:04.623Z,25.77
2022-08-19T07:36:33.147Z,24.43
2022-08-19T07:38:59.697Z,18.13
2022-08-19T07:41:26.328Z,19.90
2022-08-19T07:43:52.903Z,18.60
2022-08-19T07:46:21.334Z,14.13
2022-08-19T07:48:47.873Z,25.10
2022-08-19T07:51:14.446Z,17.17
2022-08-19T07:53:56.115Z,14.93
2022-08-19T07:56:22.759Z,18.07
2022-08-19T07:58:49.445Z,19.80
2022-08-19T08:01:16.490Z,16.77
2022-08-19T08:04:01.882Z,21.53
2022-08-19T08:06:47.216Z,15.80
2022-08-19T08:09:16.831Z,16.57
2022-08-19T08:11:43.383Z,17.60
2022-08-19T08:14:28.993Z,21.00
2022-08-19T08:16:56.340Z,21.87
2022-08-19T08:19:26.027Z,17.17
2022-08-19T08:21:52.628Z,25.20
2022-08-19T08:24:19.243Z,18.60
2022-08-19T08:26:52.024Z,18.40
2022-08-19T08:29:20.249Z,19.50
2022-08-19T08:31:46.995Z,23.13
2022-08-19T08:34:25.115Z,19.03
2022-08-19T08:36:53.073Z,19.57
2022-08-19T08:39:19.659Z,19.40
2022-08-19T08:41:46.213Z,17.87
2022-08-19T08:44:17.160Z,19.03
2022-08-19T08:46:43.936Z,21.77
2022-08-19T08:49:10.587Z,17.27
2022-08-19T08:51:38.134Z,21.20
2022-08-19T08:54:04.786Z,15.10
2022-08-19T08:59:03.185Z,21.53
2022-08-19T09:01:30.777Z,16.27
2022-08-19T09:03:57.628Z,16.40
2022-08-19T09:06:29.697Z,22.30
2022-08-19T09:08:56.721Z,21.03
2022-08-19T09:11:42.077Z,19.93
2022-08-19T09:14:23.579Z,21.70
2022-08-19T09:16:56.704Z,19.80
2022-08-19T09:19:23.247Z,15.80
2022-08-19T09:21:51.311Z,17.50
2022-08-19T09:24:18.202Z,20.83
2022-08-19T09:26:52.304Z,16.30
2022-08-19T09:29:19.589Z,17.00
2022-08-19T09:31:49.164Z,17.67
2022-08-19T09:34:21.664Z,14.57
2022-08-19T09:36:55.894Z,21.90
2022-08-19T09:39:22.451Z,15.27
2022-08-19T09:41:50.727Z,11.40
2022-08-19T09:44:24.143Z,14.93
2022-08-19T09:46:53.583Z,10.27
2022-08-19T09:49:20.696Z,11.77
2022-08-19T09:51:51.177Z,15.27
2022-08-19T09:54:25.202Z,12.45
2022-08-19T09:56:52.057Z,13.77
2022-08-19T09:59:18.953Z,16.43
2022-08-19T10:01:45.643Z,14.83
2022-08-19T10:04:20.255Z,13.70
2022-08-19T10:06:51.853Z,11.50
2022-08-19T10:09:33.835Z,7.70
2022-08-19T10:12:02.539Z,9.93
2022-08-19T10:14:29.971Z,10.90
2022-08-19T10:16:59.122Z,11.63
2022-08-19T10:19:26.461Z,9.83
2022-08-19T10:21:53.209Z,7.43
2022-08-19T10:24:21.906Z,5.37
2022-08-19T10:26:49.422Z,6.93
2022-08-19T10:29:32.208Z,7.43
2022-08-19T10:32:03.150Z,11.50
2022-08-19T10:34:29.888Z,14.35
2022-08-19T10:37:01.153Z,9.73
2022-08-19T10:39:30.952Z,11.93
2022-08-19T10:41:58.154Z,13.23
2022-08-19T10:44:24.971Z,19.33
2022-08-19T10:46:59.801Z,10.07
2022-08-19T10:49:26.810Z,11.70
2022-08-19T10:52:13.107Z,12.00
2022-08-19T10:55:08.462Z,10.02
2022-08-19T11:00:21.930Z,11.75
2022-08-19T11:02:50.841Z,7.65
2022-08-19T11:05:18.013Z,14.13
2022-08-19T11:07:45.598Z,12.23
2022-08-19T11:10:13.245Z,11.07
2022-08-19T11:12:40.208Z,7.63
2022-08-19T11:15:06.728Z,8.98
2022-08-19T11:17:33.300Z,10.90
2022-08-19T11:20:03.157Z,13.05
2022-08-19T11:22:34.420Z,13.30
2022-08-19T11:25:05.669Z,10.45
2022-08-19T11:27:32.264Z,21.27
2022-08-19T11:29:58.829Z,13.52
2022-08-19T11:32:25.529Z,16.70
2022-08-19T11:34:52.191Z,15.35
2022-08-19T11:37:19.550Z,11.07
2022-08-19T11:39:46.150Z,14.13
2022-08-19T11:42:39.549Z,10.65
2022-08-19T11:45:06.192Z,10.13
2022-08-19T11:47:33.202Z,11.60
2022-08-19T11:50:00.080Z,13.18
2022-08-19T11:52:27.566Z,13.02
2022-08-19T11:54:54.493Z,12.73
2022-08-19T11:57:21.106Z,17.60
2022-08-19T11:59:47.631Z,14.63
2022-08-19T12:02:16.309Z,20.23
2022-08-19T12:04:42.920Z,19.42
2022-08-19T12:07:09.460Z,15.88
2022-08-19T12:09:35.975Z,13.52
2022-08-19T12:12:03.290Z,16.00
2022-08-19T12:14:31.731Z,20.73
2022-08-19T12:16:58.364Z,17.70
2022-08-19T12:19:25.705Z,26.52
2022-08-19T12:21:52.352Z,16.10
2022-08-19T12:24:24.101Z,19.48
2022-08-19T12:26:52.918Z,14.40
2022-08-19T12:29:23.396Z,12.63
2022-08-19T12:31:50.632Z,15.57
2022-08-19T12:34:17.178Z,12.25
2022-08-19T12:36:43.738Z,19.60
2022-08-19T12:39:10.739Z,20.42
2022-08-19T12:41:43.364Z,20.65
2022-08-19T12:44:18.004Z,19.95
2022-08-19T12:46:46.440Z,16.00
2022-08-19T12:49:20.675Z,21.52
2022-08-19T12:51:59.768Z,11.85
2022-08-19T12:54:26.905Z,11.82
2022-08-19T12:56:53.590Z,9.75
2022-08-19T12:59:20.168Z,9.68
2022-08-19T13:01:46.724Z,8.35
2022-08-19T13:04:13.341Z,8.82
2022-08-19T13:06:39.970Z,8.50
2022-08-19T13:09:06.487Z,6.95
2022-08-19T13:11:36.043Z,6.93
2022-08-19T13:14:02.611Z,9.77
2022-08-19T13:16:29.212Z,11.63
2022-08-19T13:18:55.815Z,13.98
2022-08-19T13:21:23.169Z,11.70
2022-08-19T13:23:49.897Z,10.27
2022-08-19T13:26:16.475Z,10.57
2022-08-19T13:29:01.917Z,12.65
2022-08-19T13:31:47.083Z,13.02
2022-08-19T13:34:13.641Z,10.68
2022-08-19T13:36:40.314Z,14.35
2022-08-19T13:39:06.951Z,13.82
2022-08-19T13:41:34.652Z,12.77
2022-08-19T13:44:01.173Z,10.32
2022-08-19T13:46:28.219Z,10.57
2022-08-19T13:48:54.983Z,21.92
2022-08-19T13:51:21.676Z,12.50
2022-08-19T13:53:48.325Z,14.32
2022-08-19T13:56:14.911Z,10.50
2022-08-19T13:58:41.454Z,10.77
2022-08-19T14:01:08.073Z,12.18
2022-08-19T14:03:34.736Z,11.70
2022-08-19T14:06:01.329Z,12.70
2022-08-19T14:08:29.034Z,11.45
2022-08-19T14:10:55.604Z,16.65
2022-08-19T14:13:22.143Z,12.35
2022-08-19T14:15:48.720Z,11.73
2022-08-19T14:18:15.291Z,10.75
2022-08-19T14:20:43.150Z,12.50
2022-08-19T14:23:09.968Z,16.73
2022-08-19T14:25:36.529Z,14.05
2022-08-19T14:28:03.108Z,10.80
2022-08-19T14:30:29.792Z,14.77
2022-08-19T14:32:56.294Z,10.38
2022-08-19T14:35:22.818Z,12.20
2022-08-19T14:37:49.334Z,9.00
2022-08-19T14:40:16.333Z,9.65
2022-08-19T14:42:42.953Z,10.85
2022-08-19T14:45:09.545Z,12.38
2022-08-19T14:47:36.083Z,15.82
2022-08-19T14:50:07.373Z,14.90
2022-08-19T14:52:37.191Z,12.20
2022-08-19T14:55:03.733Z,15.13
2022-08-19T14:57:34.264Z,14.02
2022-08-19T15:00:00.992Z,11.38
2022-08-19T15:02:34.606Z,12.50
2022-08-19T15:05:02.521Z,16.60
2022-08-19T15:07:30.083Z,11.65
2022-08-19T15:09:56.773Z,9.80
2022-08-19T15:12:23.453Z,9.85
2022-08-19T15:14:55.845Z,8.50
2022-08-19T15:17:43.323Z,10.00
2022-08-19T15:20:10.131Z,11.57
2022-08-19T15:22:36.656Z,11.52
2022-08-19T15:25:03.205Z,13.52
2022-08-19T15:27:30.591Z,9.45
2022-08-19T15:30:01.624Z,9.75
2022-08-19T15:32:28.914Z,7.32
2022-08-19T15:34:55.457Z,11.00
2022-08-19T15:37:25.266Z,18.60
2022-08-19T15:39:52.044Z,15.25
2022-08-19T15:42:28.139Z,12.65
2022-08-19T15:45:00.519Z,9.25
2022-08-19T15:47:28.088Z,5.97
2022-08-19T15:50:01.102Z,13.57
2022-08-19T15:52:27.887Z,10.63
2022-08-19T15:54:54.423Z,7.68
2022-08-19T15:57:27.043Z,10.30
2022-08-19T16:00:12.520Z,8.90
2022-08-19T16:02:57.874Z,9.10
2022-08-19T16:05:44.528Z,7.82
2022-08-19T16:08:11.092Z,7.18
2022-08-19T16:10:38.282Z,7.57
2022-08-19T16:13:05.952Z,12.40
2022-08-19T16:15:33.656Z,14.23
2022-08-19T16:18:04.219Z,14.65
2022-08-19T16:20:30.827Z,11.13
2022-08-19T16:22:58.277Z,9.13
2022-08-19T16:25:27.607Z,8.50
2022-08-19T16:28:06.149Z,12.77
2022-08-19T16:30:33.555Z,11.13
2022-08-19T16:33:00.063Z,11.95
2022-08-19T16:35:26.625Z,9.52
2022-08-19T16:37:53.547Z,6.60
2022-08-19T16:40:20.344Z,9.68
2022-08-19T16:42:46.934Z,6.93
2022-08-19T16:45:13.479Z,10.18
2022-08-19T16:47:40.709Z,10.45
2022-08-19T16:50:07.619Z,7.68
2022-08-19T16:52:34.836Z,8.57
2022-08-19T16:55:01.466Z,8.32
2022-08-19T16:57:28.033Z,8.65
2022-08-19T16:59:54.648Z,8.30
2022-08-19T17:02:22.356Z,8.27
2022-08-19T17:04:58.402Z,9.20
2022-08-19T17:07:25.736Z,8.15
2022-08-19T17:09:52.341Z,9.48
2022-08-19T17:12:18.903Z,7.65
2022-08-19T17:14:45.993Z,7.63
2022-08-19T17:17:12.760Z,12.93
2022-08-19T17:19:41.584Z,14.33
2022-08-19T17:22:08.203Z,9.02
2022-08-19T17:24:38.042Z,8.80
2022-08-19T17:27:07.227Z,8.20
2022-08-19T17:29:33.891Z,8.38
2022-08-19T17:32:00.488Z,10.30
2022-08-19T17:34:28.107Z,7.07
2022-08-19T17:36:56.796Z,5.75
2022-08-19T17:39:23.367Z,7.53
2022-08-19T17:41:49.959Z,8.38
2022-08-19T17:44:17.312Z,5.55
2022-08-19T17:46:46.505Z,6.28
2022-08-19T17:49:13.108Z,6.30
2022-08-19T17:51:40.209Z,12.98
2022-08-19T17:54:06.794Z,7.97
2022-08-19T17:56:33.411Z,9.27
2022-08-19T17:59:01.663Z,14.70
2022-08-19T18:01:33.484Z,12.30
2022-08-19T18:04:15.106Z,10.32
2022-08-19T18:06:41.682Z,11.27
2022-08-19T18:09:16.959Z,9.03
2022-08-19T18:11:44.665Z,10.33
2022-08-19T18:14:13.164Z,13.40
2022-08-19T18:16:40.255Z,11.67
2022-08-19T18:19:07.353Z,15.70
2022-08-19T18:21:35.948Z,9.50
2022-08-19T18:24:02.571Z,13.03
2022-08-19T18:26:30.263Z,8.47
2022-08-19T18:28:57.320Z,10.20
2022-08-19T18:31:23.982Z,13.97
2022-08-19T18:33:52.505Z,9.03
2022-08-19T18:36:37.409Z,11.03
2022-08-19T18:39:35.364Z,8.63
2022-08-19T18:42:23.169Z,10.57
2022-08-19T18:45:08.702Z,11.10
2022-08-19T18:47:54.201Z,12.07
2022-08-19T18:50:23.894Z,14.10
2022-08-19T18:52:50.428Z,10.10
2022-08-19T18:55:18.129Z,11.83
2022-08-19T18:57:44.802Z,13.40
2022-08-19T19:00:12.558Z,12.23
2022-08-19T19:02:39.996Z,14.10
2022-08-19T19:05:07.631Z,6.87
2022-08-19T19:07:34.499Z,8.67
2022-08-19T19:10:01.108Z,14.53
2022-08-19T19:12:30.658Z,8.10
2022-08-19T19:14:58.645Z,12.63
2022-08-19T19:17:28.386Z,9.10
2022-08-19T19:19:54.948Z,8.40
2022-08-19T19:22:21.517Z,13.10
2022-08-19T19:24:48.196Z,10.77
2022-08-19T19:27:15.039Z,7.73
2022-08-19T19:29:41.650Z,13.10
2022-08-19T19:32:08.224Z,8.57
2022-08-19T19:34:34.817Z,9.10
2022-08-19T19:37:01.450Z,7.63
2022-08-19T19:39:45.106Z,10.43
2022-08-19T19:42:20.564Z,10.13
2022-08-19T19:44:48.928Z,9.87
2022-08-19T19:47:16.005Z,9.50
2022-08-19T19:50:03.829Z,9.80
2022-08-19T19:52:29.559Z,11.33
2022-08-19T19:54:57.107Z,9.07
2022-08-19T19:57:23.817Z,10.00
2022-08-19T19:59:51.415Z,8.57
2022-08-19T20:02:18.386Z,9.93
2022-08-19T20:04:45.406Z,12.70
2022-08-19T20:07:12.005Z,10.53
2022-08-19T20:09:58.339Z,8.43
2022-08-19T20:12:25.107Z,9.37
2022-08-19T20:14:51.676Z,7.20
2022-08-19T20:17:20.551Z,15.07
2022-08-19T20:19:47.841Z,12.07
2022-08-19T20:22:14.910Z,10.93
2022-08-19T20:24:42.623Z,11.43
2022-08-19T20:27:09.312Z,7.17
2022-08-19T20:29:39.585Z,11.33
2022-08-19T20:32:07.117Z,7.70
2022-08-19T20:34:33.798Z,9.20
2022-08-19T20:37:00.390Z,14.60
2022-08-19T20:39:26.983Z,7.73
2022-08-19T20:41:53.597Z,10.40
2022-08-19T20:44:20.180Z,14.50
2022-08-19T20:46:54.812Z,7.27
2022-08-19T20:49:22.969Z,9.20
2022-08-19T20:51:54.446Z,15.23
2022-08-19T20:54:21.076Z,10.57
2022-08-19T20:56:47.741Z,10.80
2022-08-19T20:59:14.442Z,7.67
2022-08-19T21:01:40.967Z,11.30
2022-08-19T21:04:07.672Z,10.63
2022-08-19T21:06:34.236Z,7.87
2022-08-19T21:09:00.813Z,11.00
2022-08-19T21:11:27.414Z,9.53
2022-08-19T21:13:54.054Z,7.40
2022-08-19T21:16:20.814Z,7.73
2022-08-19T21:18:48.208Z,17.00
2022-08-19T21:21:15.800Z,10.73
2022-08-19T21:23:42.602Z,13.10
2022-08-19T21:26:09.626Z,15.83
2022-08-19T21:28:36.730Z,11.13
2022-08-19T21:31:03.860Z,14.50
2022-08-19T21:33:32.110Z,13.17
2022-08-19T21:35:59.206Z,12.10
2022-08-19T21:38:25.800Z,13.07
2022-08-19T21:40:52.473Z,13.90
2022-08-19T21:43:19.055Z,15.30
2022-08-19T21:45:45.634Z,11.97
2022-08-19T21:48:14.333Z,18.30
2022-08-19T21:50:40.938Z,16.27
2022-08-19T21:53:07.808Z,15.97
2022-08-19T21:55:37.871Z,23.23
2022-08-19T21:58:04.502Z,18.47
2022-08-19T22:00:32.218Z,17.10
2022-08-19T22:02:58.966Z,18.57
2022-08-19T22:05:25.634Z,15.40
2022-08-19T22:07:52.244Z,17.17
2022-08-19T22:10:18.989Z,14.20
2022-08-19T22:12:51.345Z,18.13
2022-08-19T22:15:18.878Z,20.53
2022-08-19T22:17:45.428Z,22.03
2022-08-19T22:20:12.011Z,20.47
2022-08-19T22:22:38.535Z,17.33
2022-08-19T22:25:05.545Z,16.70
2022-08-19T22:27:32.139Z,13.93
2022-08-19T22:29:58.711Z,15.13
2022-08-19T22:32:28.633Z,16.53
2022-08-19T22:34:56.345Z,20.27
2022-08-19T22:37:22.932Z,20.03
2022-08-19T22:39:49.677Z,22.93
2022-08-19T22:42:16.361Z,19.60
2022-08-19T22:44:43.074Z,21.90
2022-08-19T22:47:10.010Z,20.50
2022-08-19T22:49:36.572Z,24.70
2022-08-19T22:52:17.644Z,18.83
2022-08-19T22:54:45.050Z,14.33
2022-08-19T22:57:11.591Z,15.40
2022-08-19T22:59:38.112Z,14.97
2022-08-19T23:02:04.674Z,12.30
2022-08-19T23:04:31.212Z,16.67
2022-08-19T23:06:57.779Z,13.23
2022-08-19T23:09:24.340Z,20.43
2022-08-19T23:11:50.942Z,14.47
2022-08-19T23:14:18.808Z,15.03
2022-08-19T23:16:50.391Z,11.73
2022-08-19T23:19:17.937Z,16.30
2022-08-19T23:21:44.505Z,15.30
2022-08-19T23:24:11.035Z,19.30
2022-08-19T23:26:37.593Z,26.57
2022-08-19T23:29:22.920Z,17.00
2022-08-19T23:31:49.846Z,21.53
2022-08-19T23:34:17.143Z,21.33
2022-08-19T23:36:43.691Z,21.40
2022-08-19T23:39:10.234Z,29.03
2022-08-19T23:41:36.799Z,22.50
2022-08-19T23:44:03.381Z,25.90
2022-08-19T23:46:30.981Z,25.23
2022-08-19T23:49:08.809Z,34.73
2022-08-19T23:51:35.520Z,24.87
2022-08-19T23:54:02.052Z,22.07
2022-08-19T23:56:28.622Z,13.57
2022-08-19T23:58:55.255Z,19.90
